createdAt,value
2023-03-17T06:49:43.197Z,2.81
2023-03-17T06:50:43.186Z,2.85
2023-03-17T06:51:43.230Z,2.89
2023-03-17T06:52:44.968Z,2.94
2023-03-17T06:53:43.099Z,2.97
2023-03-17T06:54:43.134Z,3.00
2023-03-17T06:55:43.125Z,3.06
2023-03-17T06:56:43.146Z,3.09
2023-03-17T06:57:43.062Z,3.13
2023-03-17T06:58:43.056Z,3.16
2023-03-17T06:59:43.052Z,3.21
2023-03-17T07:00:43.297Z,3.25
2023-03-17T07:01:43.033Z,3.31
2023-03-17T07:02:43.027Z,3.36
2023-03-17T07:03:42.952Z,3.44
2023-03-17T07:04:43.036Z,3.49
2023-03-17T07:05:43.012Z,3.53
2023-03-17T07:06:42.975Z,3.61
2023-03-17T07:07:42.938Z,3.65
2023-03-17T07:08:42.944Z,3.70
2023-03-17T07:09:42.880Z,3.75
2023-03-17T07:10:42.972Z,3.79
2023-03-17T07:11:42.899Z,3.85
2023-03-17T07:12:42.845Z,3.89
2023-03-17T07:13:42.908Z,3.94
2023-03-17T07:14:42.897Z,3.98
2023-03-17T07:15:42.856Z,4.06
2023-03-17T07:16:42.871Z,4.10
2023-03-17T07:17:42.889Z,4.15
2023-03-17T07:18:42.771Z,4.21
2023-03-17T07:19:42.903Z,4.26
2023-03-17T07:20:42.773Z,4.33
2023-03-17T07:21:42.753Z,4.37
2023-03-17T07:22:42.766Z,4.42
2023-03-17T07:23:42.784Z,4.50
2023-03-17T07:24:42.736Z,4.51
2023-03-17T07:25:42.745Z,4.58
2023-03-17T07:26:42.656Z,4.62
2023-03-17T07:27:42.643Z,4.69
2023-03-17T07:28:42.694Z,4.75
2023-03-17T07:29:42.657Z,4.77
2023-03-17T07:30:42.730Z,4.84
2023-03-17T07:31:43.045Z,4.91
2023-03-17T07:32:42.678Z,4.95
2023-03-17T07:33:42.669Z,4.98
2023-03-17T07:34:42.770Z,5.09
2023-03-17T07:35:42.633Z,5.17
2023-03-17T07:36:42.642Z,5.25
2023-03-17T07:37:42.547Z,5.32
2023-03-17T07:38:42.538Z,5.38
2023-03-17T07:39:42.540Z,5.46
2023-03-17T07:40:42.511Z,5.56
2023-03-17T07:41:42.507Z,5.60
2023-03-17T07:42:42.511Z,5.64
2023-03-17T07:43:42.494Z,5.68
2023-03-17T07:44:42.484Z,5.70
2023-03-17T07:45:42.436Z,5.74
2023-03-17T07:46:42.460Z,5.75
2023-03-17T07:47:42.383Z,5.81
2023-03-17T07:48:42.435Z,5.83
2023-03-17T07:49:42.625Z,5.85
2023-03-17T07:50:42.359Z,5.88
2023-03-17T07:51:42.341Z,5.89
2023-03-17T07:52:42.363Z,5.92
2023-03-17T07:53:42.343Z,5.95
2023-03-17T07:54:43.189Z,6.00
2023-03-17T07:55:42.296Z,6.00
2023-03-17T07:56:42.382Z,6.01
2023-03-17T07:57:42.333Z,6.04
2023-03-17T07:58:42.300Z,6.06
2023-03-17T07:59:42.292Z,6.09
2023-03-17T08:00:42.307Z,6.10
2023-03-17T08:01:42.276Z,6.13
2023-03-17T08:02:42.355Z,6.18
2023-03-17T08:03:42.246Z,6.19
2023-03-17T08:04:42.168Z,6.25
2023-03-17T08:05:42.184Z,6.28
2023-03-17T08:06:42.140Z,6.30
2023-03-17T08:07:42.233Z,6.35
2023-03-17T08:08:42.176Z,6.41
2023-03-17T08:09:42.128Z,6.46
2023-03-17T08:10:42.096Z,6.51
2023-03-17T08:11:42.107Z,6.54
2023-03-17T08:12:42.055Z,6.59
2023-03-17T08:13:42.076Z,6.63
2023-03-17T08:14:42.050Z,6.72
2023-03-17T08:15:42.013Z,6.77
2023-03-17T08:16:42.132Z,6.84
2023-03-17T08:17:42.005Z,6.91
2023-03-17T08:18:42.020Z,6.98
2023-03-17T08:19:42.074Z,7.02
2023-03-17T08:20:42.025Z,7.08
2023-03-17T08:21:41.961Z,7.16
2023-03-17T08:22:41.971Z,7.22
2023-03-17T08:23:41.981Z,7.29
2023-03-17T08:24:41.938Z,7.37
2023-03-17T08:25:41.915Z,7.40
2023-03-17T08:26:41.979Z,7.45
2023-03-17T08:27:41.935Z,7.53
2023-03-17T08:28:41.876Z,7.60
2023-03-17T08:29:41.930Z,7.66
2023-03-17T08:30:41.992Z,7.75
2023-03-17T08:31:42.477Z,7.82
2023-03-17T08:32:41.914Z,7.93
2023-03-17T08:33:41.772Z,8.02
2023-03-17T08:34:41.809Z,8.04
2023-03-17T08:35:41.796Z,8.08
2023-03-17T08:36:41.769Z,8.14
2023-03-17T08:37:41.793Z,8.21
2023-03-17T08:38:41.747Z,8.22
2023-03-17T08:39:41.752Z,8.29
2023-03-17T08:40:41.728Z,8.37
2023-03-17T08:41:41.677Z,8.45
2023-03-17T08:42:41.661Z,8.54
2023-03-17T08:43:41.726Z,8.62
2023-03-17T08:44:43.951Z,8.68
2023-03-17T08:45:41.702Z,8.73
2023-03-17T08:46:41.626Z,8.79
2023-03-17T08:47:41.622Z,8.84
2023-03-17T08:48:41.595Z,8.90
2023-03-17T08:49:41.775Z,8.96
2023-03-17T08:50:41.557Z,9.04
2023-03-17T08:51:41.536Z,9.10
2023-03-17T08:52:41.649Z,9.16
2023-03-17T08:53:41.540Z,9.23
2023-03-17T08:54:41.572Z,9.27
2023-03-17T08:55:41.506Z,9.31
2023-03-17T08:56:41.516Z,9.38
2023-03-17T08:57:41.517Z,9.42
2023-03-17T08:58:41.496Z,9.48
2023-03-17T08:59:41.489Z,9.52
2023-03-17T09:00:41.482Z,9.58
2023-03-17T09:01:41.506Z,9.64
2023-03-17T09:02:41.564Z,9.67
2023-03-17T09:03:41.384Z,9.75
2023-03-17T09:04:41.419Z,9.76
2023-03-17T09:05:41.393Z,9.82
2023-03-17T09:06:51.894Z,9.89
2023-03-17T09:07:42.457Z,9.91
2023-03-17T09:08:41.385Z,9.96
2023-03-17T09:09:41.395Z,9.99
2023-03-17T09:10:44.197Z,10.03
2023-03-17T09:11:41.307Z,10.07
2023-03-17T09:12:41.312Z,10.10
2023-03-17T09:13:41.314Z,10.14
2023-03-17T09:14:44.140Z,10.18
2023-03-17T09:15:41.282Z,10.25
2023-03-17T09:16:41.191Z,10.30
2023-03-17T09:17:41.187Z,10.33
2023-03-17T09:18:41.197Z,10.39
2023-03-17T09:19:41.171Z,10.46
2023-03-17T09:20:41.198Z,10.56
2023-03-17T09:21:41.179Z,10.62
2023-03-17T09:22:41.150Z,10.70
2023-03-17T09:23:41.221Z,10.77
2023-03-17T09:24:41.110Z,10.81
2023-03-17T09:25:41.077Z,10.86
2023-03-17T09:26:41.056Z,10.91
2023-03-17T09:27:41.105Z,10.96
2023-03-17T09:28:41.068Z,11.01
2023-03-17T09:29:41.057Z,11.07
2023-03-17T09:30:41.127Z,11.10
2023-03-17T09:31:41.168Z,11.14
2023-03-17T09:32:41.077Z,11.17
2023-03-17T09:33:41.005Z,11.19
2023-03-17T09:34:40.976Z,11.24
2023-03-17T09:35:41.181Z,11.27
2023-03-17T09:36:41.053Z,11.32
2023-03-17T09:37:41.003Z,11.34
2023-03-17T09:38:40.951Z,11.36
2023-03-17T09:39:40.919Z,11.36
2023-03-17T09:40:40.940Z,11.41
2023-03-17T09:41:40.883Z,11.44
2023-03-17T09:42:40.923Z,11.46
2023-03-17T09:43:40.922Z,11.50
2023-03-17T09:44:40.914Z,11.53
2023-03-17T09:45:43.643Z,11.61
2023-03-17T09:46:40.966Z,11.64
2023-03-17T09:47:42.720Z,11.68
2023-03-17T09:48:40.871Z,11.70
2023-03-17T09:49:40.821Z,11.71
2023-03-17T09:50:40.840Z,11.74
2023-03-17T09:51:40.838Z,11.75
2023-03-17T09:52:40.824Z,11.77
2023-03-17T09:53:40.810Z,11.82
2023-03-17T09:54:40.774Z,11.82
2023-03-17T09:55:40.788Z,11.83
2023-03-17T09:56:40.848Z,11.86
2023-03-17T09:57:41.099Z,11.93
2023-03-17T09:58:40.967Z,11.93
2023-03-17T09:59:44.043Z,11.97
2023-03-17T10:00:40.844Z,12.04
2023-03-17T10:01:40.989Z,12.08
2023-03-17T10:02:40.648Z,12.11
2023-03-17T10:03:40.640Z,12.11
2023-03-17T10:04:40.607Z,12.11
2023-03-17T10:05:40.756Z,12.15
2023-03-17T10:06:40.599Z,12.15
2023-03-17T10:07:40.553Z,12.19
2023-03-17T10:08:40.573Z,12.21
2023-03-17T10:09:40.610Z,12.21
2023-03-17T10:10:40.501Z,12.24
2023-03-17T10:11:40.510Z,12.27
2023-03-17T10:12:40.536Z,12.27
2023-03-17T10:13:40.495Z,12.29
2023-03-17T10:14:40.535Z,12.29
2023-03-17T10:15:40.516Z,12.30
2023-03-17T10:16:40.484Z,12.31
2023-03-17T10:17:40.469Z,12.31
2023-03-17T10:18:40.461Z,12.34
2023-03-17T10:19:40.443Z,12.39
2023-03-17T10:20:40.386Z,12.42
2023-03-17T10:21:40.381Z,12.45
2023-03-17T10:22:40.379Z,12.48
2023-03-17T10:23:40.374Z,12.51
2023-03-17T10:24:40.317Z,12.54
2023-03-17T10:25:40.315Z,12.57
2023-03-17T10:26:40.294Z,12.60
2023-03-17T10:27:40.340Z,12.62
2023-03-17T10:28:40.294Z,12.64
2023-03-17T10:29:40.253Z,12.69
2023-03-17T10:30:40.288Z,12.71
2023-03-17T10:31:40.343Z,12.74
2023-03-17T10:32:40.282Z,12.75
2023-03-17T10:33:40.177Z,12.79
2023-03-17T10:34:40.188Z,12.81
2023-03-17T10:35:40.204Z,12.84
2023-03-17T10:36:40.204Z,12.88
2023-03-17T10:37:42.537Z,12.89
2023-03-17T10:38:40.156Z,12.95
2023-03-17T10:39:40.138Z,12.95
2023-03-17T10:40:40.132Z,12.93
2023-03-17T10:41:40.135Z,12.96
2023-03-17T10:42:40.103Z,12.96
2023-03-17T10:43:40.115Z,12.96
2023-03-17T10:44:40.105Z,12.96
2023-03-17T10:45:42.228Z,12.96
2023-03-17T10:46:40.099Z,12.96
2023-03-17T10:47:40.060Z,12.97
2023-03-17T10:48:40.078Z,13.02
2023-03-17T10:49:40.025Z,13.03
2023-03-17T10:50:39.978Z,13.04
2023-03-17T10:51:39.963Z,13.06
2023-03-17T10:52:39.976Z,13.06
2023-03-17T10:53:39.986Z,13.09
2023-03-17T10:54:39.906Z,13.07
2023-03-17T10:55:39.903Z,13.09
2023-03-17T10:56:39.926Z,13.12
2023-03-17T10:57:39.887Z,13.14
2023-03-17T10:58:39.946Z,13.15
2023-03-17T10:59:42.095Z,13.15
2023-03-17T11:00:39.899Z,13.15
2023-03-17T11:01:39.845Z,13.18
2023-03-17T11:02:39.841Z,13.18
2023-03-17T11:03:39.898Z,13.17
2023-03-17T11:04:39.838Z,13.18
2023-03-17T11:05:40.177Z,13.17
2023-03-17T11:06:39.739Z,13.15
2023-03-17T11:07:39.828Z,13.15
2023-03-17T11:08:39.753Z,13.15
2023-03-17T11:09:39.704Z,13.14
2023-03-17T11:10:39.704Z,13.12
2023-03-17T11:11:39.758Z,13.12
2023-03-17T11:12:39.729Z,13.12
2023-03-17T11:13:39.668Z,13.12
2023-03-17T11:14:39.690Z,13.14
2023-03-17T11:15:39.719Z,13.15
2023-03-17T11:16:39.661Z,13.17
2023-03-17T11:17:39.661Z,13.17
2023-03-17T11:18:39.639Z,13.17
2023-03-17T11:19:39.594Z,13.21
2023-03-17T11:20:39.630Z,13.21
2023-03-17T11:21:39.573Z,13.22
2023-03-17T11:22:39.572Z,13.24
2023-03-17T11:23:39.563Z,13.27
2023-03-17T11:24:39.531Z,13.27
2023-03-17T11:25:39.503Z,13.30
2023-03-17T11:26:39.600Z,13.32
2023-03-17T11:27:39.471Z,13.30
2023-03-17T11:28:39.441Z,13.30
2023-03-17T11:29:39.452Z,13.30
2023-03-17T11:30:39.452Z,13.32
2023-03-17T11:31:39.440Z,13.32
2023-03-17T11:32:39.625Z,13.36
2023-03-17T11:33:39.432Z,13.36
2023-03-17T11:34:39.390Z,13.37
2023-03-17T11:35:39.422Z,13.37
2023-03-17T11:36:39.428Z,13.38
2023-03-17T11:37:39.380Z,13.40
2023-03-17T11:38:39.373Z,13.43
2023-03-17T11:39:39.351Z,13.49
2023-03-17T11:40:39.340Z,13.51
2023-03-17T11:41:39.312Z,13.55
2023-03-17T11:42:39.298Z,13.58
2023-03-17T11:43:39.229Z,13.63
2023-03-17T11:44:39.283Z,13.69
2023-03-17T11:45:39.357Z,13.73
2023-03-17T11:46:39.274Z,13.76
2023-03-17T11:47:39.247Z,13.81
2023-03-17T11:48:39.250Z,13.84
2023-03-17T11:49:39.254Z,13.88
2023-03-17T11:50:39.207Z,13.94
2023-03-17T11:51:44.058Z,13.95
2023-03-17T11:52:42.982Z,13.98
2023-03-17T11:53:39.157Z,13.98
2023-03-17T11:54:39.158Z,14.02
2023-03-17T11:55:40.030Z,14.06
2023-03-17T11:56:43.296Z,14.06
2023-03-17T11:57:40.155Z,14.07
2023-03-17T11:58:39.127Z,14.07
2023-03-17T11:59:39.140Z,14.06
2023-03-17T12:00:39.356Z,14.06
2023-03-17T12:01:39.072Z,14.06
2023-03-17T12:02:39.004Z,14.07
2023-03-17T15:13:10.989Z,14.61
2023-03-17T15:14:10.274Z,14.54
2023-03-17T15:15:10.319Z,14.53
2023-03-17T15:16:10.387Z,14.50
2023-03-17T15:17:10.266Z,14.49
2023-03-17T15:18:10.211Z,14.46
2023-03-17T15:19:10.240Z,14.46
2023-03-17T15:20:10.219Z,14.42
2023-03-17T15:21:10.159Z,14.37
2023-03-17T15:22:10.208Z,14.37
2023-03-17T15:23:10.127Z,14.37
2023-03-17T15:24:10.124Z,14.32
2023-03-17T15:25:10.139Z,14.34
2023-03-17T15:26:10.117Z,14.31
2023-03-17T15:27:10.138Z,14.32
2023-03-17T15:28:10.051Z,14.29
2023-03-17T15:29:10.062Z,14.27
2023-03-17T15:30:10.047Z,14.25
2023-03-17T15:31:10.826Z,14.24
2023-03-17T15:32:10.050Z,14.20
2023-03-17T15:33:10.079Z,14.17
2023-03-17T15:34:10.007Z,14.16
2023-03-17T15:35:09.978Z,14.13
2023-03-17T15:36:11.312Z,14.10
2023-03-17T15:37:09.977Z,14.09
2023-03-17T15:38:09.955Z,14.07
2023-03-17T15:39:09.904Z,14.04
2023-03-17T15:40:09.916Z,14.01
2023-03-17T15:41:09.936Z,13.99
2023-03-17T15:42:09.885Z,13.96
2023-03-17T15:43:09.915Z,13.95
2023-03-17T15:44:09.864Z,13.95
2023-03-17T15:45:09.853Z,13.94
2023-03-17T15:46:09.810Z,13.94
2023-03-17T15:47:09.824Z,13.92
2023-03-17T15:48:09.776Z,13.92
2023-03-17T15:49:09.850Z,13.94
2023-03-17T15:50:09.785Z,13.92
2023-03-17T15:51:09.765Z,13.91
2023-03-17T15:52:09.800Z,13.91
2023-03-17T15:53:09.736Z,13.92
2023-03-17T15:54:09.771Z,13.89
2023-03-17T15:55:09.679Z,13.88
2023-03-17T15:56:09.680Z,13.89
2023-03-17T15:57:09.681Z,13.88
2023-03-17T15:58:09.695Z,13.89
2023-03-17T15:59:09.608Z,13.88
2023-03-17T16:00:09.689Z,13.88
2023-03-17T16:01:09.681Z,13.89
2023-03-17T16:02:09.645Z,13.89
2023-03-17T16:03:09.586Z,13.89
